sensor_id;sensor_type;location;lat;lon;timestamp;P1;durP1;ratioP1;P2;durP2;ratioP2
64157;SDS011;50449;51.528;5.076;2023-12-20T00:00:54;71.82;;;68.63;;
64157;SDS011;50449;51.528;5.076;2023-12-20T00:03:19;75.95;;;72.20;;
64157;SDS011;50449;51.528;5.076;2023-12-20T00:05:45;73.78;;;69.60;;
64157;SDS011;50449;51.528;5.076;2023-12-20T00:08:12;74.30;;;70.90;;
64157;SDS011;50449;51.528;5.076;2023-12-20T00:10:37;74.80;;;71.50;;
64157;SDS011;50449;51.528;5.076;2023-12-20T00:13:03;67.72;;;64.68;;
64157;SDS011;50449;51.528;5.076;2023-12-20T00:15:28;75.03;;;70.50;;
64157;SDS011;50449;51.528;5.076;2023-12-20T00:17:53;70.05;;;66.93;;
64157;SDS011;50449;51.528;5.076;2023-12-20T00:20:19;70.60;;;67.30;;
64157;SDS011;50449;51.528;5.076;2023-12-20T00:22:44;67.22;;;63.72;;
64157;SDS011;50449;51.528;5.076;2023-12-20T00:25:10;72.40;;;69.13;;
64157;SDS011;50449;51.528;5.076;2023-12-20T00:27:35;70.60;;;67.00;;
64157;SDS011;50449;51.528;5.076;2023-12-20T00:30:02;66.63;;;63.55;;
64157;SDS011;50449;51.528;5.076;2023-12-20T00:32:27;70.53;;;67.13;;
64157;SDS011;50449;51.528;5.076;2023-12-20T00:34:52;70.47;;;67.15;;
64157;SDS011;50449;51.528;5.076;2023-12-20T00:37:18;75.90;;;72.10;;
64157;SDS011;50449;51.528;5.076;2023-12-20T00:39:43;70.13;;;67.00;;
64157;SDS011;50449;51.528;5.076;2023-12-20T00:42:09;69.22;;;66.00;;
64157;SDS011;50449;51.528;5.076;2023-12-20T00:44:34;70.70;;;67.50;;
64157;SDS011;50449;51.528;5.076;2023-12-20T00:46:59;70.35;;;66.82;;
64157;SDS011;50449;51.528;5.076;2023-12-20T00:49:25;72.10;;;68.47;;
64157;SDS011;50449;51.528;5.076;2023-12-20T00:51:50;72.05;;;68.68;;
64157;SDS011;50449;51.528;5.076;2023-12-20T00:54:17;68.38;;;64.97;;
64157;SDS011;50449;51.528;5.076;2023-12-20T00:56:42;66.75;;;63.72;;
64157;SDS011;50449;51.528;5.076;2023-12-20T00:59:08;67.30;;;64.28;;
64157;SDS011;50449;51.528;5.076;2023-12-20T01:01:33;66.53;;;63.30;;
64157;SDS011;50449;51.528;5.076;2023-12-20T01:03:59;66.10;;;62.80;;
64157;SDS011;50449;51.528;5.076;2023-12-20T01:06:24;67.97;;;64.78;;
64157;SDS011;50449;51.528;5.076;2023-12-20T01:08:50;68.03;;;64.95;;
64157;SDS011;50449;51.528;5.076;2023-12-20T01:11:15;67.88;;;64.85;;
64157;SDS011;50449;51.528;5.076;2023-12-20T01:13:41;67.07;;;63.90;;
64157;SDS011;50449;51.528;5.076;2023-12-20T01:16:08;68.18;;;65.07;;
64157;SDS011;50449;51.528;5.076;2023-12-20T01:18:35;67.60;;;64.50;;
64157;SDS011;50449;51.528;5.076;2023-12-20T01:21:03;66.95;;;63.75;;
64157;SDS011;50449;51.528;5.076;2023-12-20T01:23:29;69.65;;;65.88;;
64157;SDS011;50449;51.528;5.076;2023-12-20T01:25:54;69.50;;;66.07;;
64157;SDS011;50449;51.528;5.076;2023-12-20T01:28:20;67.75;;;64.18;;
64157;SDS011;50449;51.528;5.076;2023-12-20T01:30:45;69.75;;;64.78;;
64157;SDS011;50449;51.528;5.076;2023-12-20T01:33:11;65.35;;;62.30;;
64157;SDS011;50449;51.528;5.076;2023-12-20T01:35:36;70.03;;;65.68;;
64157;SDS011;50449;51.528;5.076;2023-12-20T01:38:02;68.00;;;64.95;;
64157;SDS011;50449;51.528;5.076;2023-12-20T01:40:28;69.35;;;66.15;;
64157;SDS011;50449;51.528;5.076;2023-12-20T01:43:11;69.38;;;66.18;;
64157;SDS011;50449;51.528;5.076;2023-12-20T01:45:39;67.00;;;63.95;;
64157;SDS011;50449;51.528;5.076;2023-12-20T01:48:05;72.38;;;68.88;;
64157;SDS011;50449;51.528;5.076;2023-12-20T01:50:31;65.95;;;62.95;;
64157;SDS011;50449;51.528;5.076;2023-12-20T01:52:58;68.68;;;65.22;;
64157;SDS011;50449;51.528;5.076;2023-12-20T01:55:26;67.38;;;64.20;;
64157;SDS011;50449;51.528;5.076;2023-12-20T01:57:53;70.80;;;67.03;;
64157;SDS011;50449;51.528;5.076;2023-12-20T02:00:19;63.05;;;60.10;;
64157;SDS011;50449;51.528;5.076;2023-12-20T02:05:15;59.78;;;56.25;;
64157;SDS011;50449;51.528;5.076;2023-12-20T02:07:42;65.68;;;62.67;;
64157;SDS011;50449;51.528;5.076;2023-12-20T02:10:07;67.47;;;63.83;;
64157;SDS011;50449;51.528;5.076;2023-12-20T02:12:33;66.65;;;63.35;;
64157;SDS011;50449;51.528;5.076;2023-12-20T02:14:58;67.70;;;64.50;;
64157;SDS011;50449;51.528;5.076;2023-12-20T02:17:24;68.13;;;64.97;;
64157;SDS011;50449;51.528;5.076;2023-12-20T02:19:50;66.97;;;63.95;;
64157;SDS011;50449;51.528;5.076;2023-12-20T02:22:16;67.75;;;64.65;;
64157;SDS011;50449;51.528;5.076;2023-12-20T02:24:41;67.20;;;64.15;;
64157;SDS011;50449;51.528;5.076;2023-12-20T02:27:07;66.45;;;63.33;;
64157;SDS011;50449;51.528;5.076;2023-12-20T02:29:33;63.97;;;60.92;;
64157;SDS011;50449;51.528;5.076;2023-12-20T02:31:59;66.93;;;63.63;;
64157;SDS011;50449;51.528;5.076;2023-12-20T02:34:25;65.03;;;61.80;;
64157;SDS011;50449;51.528;5.076;2023-12-20T02:36:50;66.18;;;63.17;;
64157;SDS011;50449;51.528;5.076;2023-12-20T02:39:15;67.53;;;64.43;;
64157;SDS011;50449;51.528;5.076;2023-12-20T02:41:41;65.50;;;62.33;;
64157;SDS011;50449;51.528;5.076;2023-12-20T02:44:07;68.25;;;64.95;;
64157;SDS011;50449;51.528;5.076;2023-12-20T02:46:32;70.55;;;66.82;;
64157;SDS011;50449;51.528;5.076;2023-12-20T02:48:58;65.78;;;62.78;;
64157;SDS011;50449;51.528;5.076;2023-12-20T02:51:23;69.10;;;65.30;;
64157;SDS011;50449;51.528;5.076;2023-12-20T02:53:48;63.28;;;60.40;;
64157;SDS011;50449;51.528;5.076;2023-12-20T02:56:14;66.10;;;63.10;;
64157;SDS011;50449;51.528;5.076;2023-12-20T02:58:39;67.38;;;64.18;;
64157;SDS011;50449;51.528;5.076;2023-12-20T03:01:05;66.00;;;62.63;;
64157;SDS011;50449;51.528;5.076;2023-12-20T03:03:31;67.43;;;63.88;;
64157;SDS011;50449;51.528;5.076;2023-12-20T03:05:56;64.88;;;61.60;;
64157;SDS011;50449;51.528;5.076;2023-12-20T03:08:22;64.32;;;60.90;;
64157;SDS011;50449;51.528;5.076;2023-12-20T03:10:47;63.75;;;60.78;;
64157;SDS011;50449;51.528;5.076;2023-12-20T03:13:13;63.97;;;60.78;;
64157;SDS011;50449;51.528;5.076;2023-12-20T03:15:38;64.70;;;61.08;;
64157;SDS011;50449;51.528;5.076;2023-12-20T03:18:03;64.75;;;61.22;;
64157;SDS011;50449;51.528;5.076;2023-12-20T03:20:29;62.53;;;59.60;;
64157;SDS011;50449;51.528;5.076;2023-12-20T03:22:58;67.03;;;64.03;;
64157;SDS011;50449;51.528;5.076;2023-12-20T03:25:23;63.42;;;60.42;;
64157;SDS011;50449;51.528;5.076;2023-12-20T03:27:48;66.07;;;63.10;;
64157;SDS011;50449;51.528;5.076;2023-12-20T03:30:14;64.18;;;61.28;;
64157;SDS011;50449;51.528;5.076;2023-12-20T03:32:39;70.43;;;67.00;;
64157;SDS011;50449;51.528;5.076;2023-12-20T03:35:05;65.03;;;62.03;;
64157;SDS011;50449;51.528;5.076;2023-12-20T03:37:31;65.68;;;62.47;;
64157;SDS011;50449;51.528;5.076;2023-12-20T03:39:56;67.43;;;63.58;;
64157;SDS011;50449;51.528;5.076;2023-12-20T03:42:21;65.60;;;61.65;;
64157;SDS011;50449;51.528;5.076;2023-12-20T03:44:47;67.05;;;63.30;;
64157;SDS011;50449;51.528;5.076;2023-12-20T03:47:12;68.88;;;65.32;;
64157;SDS011;50449;51.528;5.076;2023-12-20T03:49:37;65.03;;;61.95;;
64157;SDS011;50449;51.528;5.076;2023-12-20T03:52:03;64.30;;;61.28;;
64157;SDS011;50449;51.528;5.076;2023-12-20T03:54:30;66.47;;;63.42;;
64157;SDS011;50449;51.528;5.076;2023-12-20T03:56:55;64.90;;;61.88;;
64157;SDS011;50449;51.528;5.076;2023-12-20T03:59:20;63.88;;;60.78;;
64157;SDS011;50449;51.528;5.076;2023-12-20T04:01:46;62.88;;;59.97;;
64157;SDS011;50449;51.528;5.076;2023-12-20T04:04:11;62.80;;;59.67;;
64157;SDS011;50449;51.528;5.076;2023-12-20T04:06:37;59.75;;;56.90;;
64157;SDS011;50449;51.528;5.076;2023-12-20T04:09:03;63.75;;;60.85;;
64157;SDS011;50449;51.528;5.076;2023-12-20T04:11:28;61.63;;;58.45;;
64157;SDS011;50449;51.528;5.076;2023-12-20T04:13:54;58.85;;;56.05;;
64157;SDS011;50449;51.528;5.076;2023-12-20T04:16:19;65.90;;;61.70;;
64157;SDS011;50449;51.528;5.076;2023-12-20T04:18:45;59.03;;;56.17;;
64157;SDS011;50449;51.528;5.076;2023-12-20T04:21:10;61.50;;;58.20;;
64157;SDS011;50449;51.528;5.076;2023-12-20T04:23:35;60.72;;;57.90;;
64157;SDS011;50449;51.528;5.076;2023-12-20T04:26:01;64.10;;;61.03;;
64157;SDS011;50449;51.528;5.076;2023-12-20T04:28:26;65.70;;;62.55;;
64157;SDS011;50449;51.528;5.076;2023-12-20T04:30:52;62.90;;;59.70;;
64157;SDS011;50449;51.528;5.076;2023-12-20T04:33:17;66.82;;;63.75;;
64157;SDS011;50449;51.528;5.076;2023-12-20T04:35:42;61.20;;;58.20;;
64157;SDS011;50449;51.528;5.076;2023-12-20T04:38:08;67.47;;;64.38;;
64157;SDS011;50449;51.528;5.076;2023-12-20T04:40:34;66.53;;;62.85;;
64157;SDS011;50449;51.528;5.076;2023-12-20T04:42:59;59.10;;;56.33;;
64157;SDS011;50449;51.528;5.076;2023-12-20T04:45:25;63.83;;;60.78;;
64157;SDS011;50449;51.528;5.076;2023-12-20T04:47:50;63.33;;;60.25;;
64157;SDS011;50449;51.528;5.076;2023-12-20T04:50:16;61.83;;;59.00;;
64157;SDS011;50449;51.528;5.076;2023-12-20T04:52:42;65.00;;;61.45;;
64157;SDS011;50449;51.528;5.076;2023-12-20T04:55:07;60.38;;;57.38;;
64157;SDS011;50449;51.528;5.076;2023-12-20T04:57:34;61.00;;;58.20;;
64157;SDS011;50449;51.528;5.076;2023-12-20T04:59:59;63.17;;;60.28;;
64157;SDS011;50449;51.528;5.076;2023-12-20T05:02:25;69.28;;;66.07;;
64157;SDS011;50449;51.528;5.076;2023-12-20T05:04:50;62.33;;;59.33;;
64157;SDS011;50449;51.528;5.076;2023-12-20T05:07:16;65.82;;;62.00;;
64157;SDS011;50449;51.528;5.076;2023-12-20T05:09:41;64.72;;;61.28;;
64157;SDS011;50449;51.528;5.076;2023-12-20T05:12:07;60.90;;;57.58;;
64157;SDS011;50449;51.528;5.076;2023-12-20T05:14:33;59.35;;;56.55;;
64157;SDS011;50449;51.528;5.076;2023-12-20T05:16:58;64.25;;;61.20;;
64157;SDS011;50449;51.528;5.076;2023-12-20T05:19:24;62.10;;;58.78;;
64157;SDS011;50449;51.528;5.076;2023-12-20T05:21:50;61.80;;;58.90;;
64157;SDS011;50449;51.528;5.076;2023-12-20T05:24:15;60.38;;;57.22;;
64157;SDS011;50449;51.528;5.076;2023-12-20T05:26:41;63.08;;;59.22;;
64157;SDS011;50449;51.528;5.076;2023-12-20T05:29:06;62.75;;;59.80;;
64157;SDS011;50449;51.528;5.076;2023-12-20T05:31:31;61.72;;;58.88;;
64157;SDS011;50449;51.528;5.076;2023-12-20T05:33:57;67.20;;;64.00;;
64157;SDS011;50449;51.528;5.076;2023-12-20T05:36:23;62.50;;;59.47;;
64157;SDS011;50449;51.528;5.076;2023-12-20T05:38:48;65.78;;;62.67;;
64157;SDS011;50449;51.528;5.076;2023-12-20T05:41:14;61.05;;;58.25;;
64157;SDS011;50449;51.528;5.076;2023-12-20T05:43:39;71.40;;;68.00;;
64157;SDS011;50449;51.528;5.076;2023-12-20T05:46:05;61.58;;;58.78;;
64157;SDS011;50449;51.528;5.076;2023-12-20T05:48:30;67.15;;;63.53;;
64157;SDS011;50449;51.528;5.076;2023-12-20T05:50:55;68.78;;;64.90;;
64157;SDS011;50449;51.528;5.076;2023-12-20T05:53:21;66.63;;;63.53;;
64157;SDS011;50449;51.528;5.076;2023-12-20T05:55:46;67.95;;;64.55;;
64157;SDS011;50449;51.528;5.076;2023-12-20T05:58:12;63.00;;;59.97;;
64157;SDS011;50449;51.528;5.076;2023-12-20T06:00:37;64.75;;;61.75;;
64157;SDS011;50449;51.528;5.076;2023-12-20T06:03:03;67.82;;;64.25;;
64157;SDS011;50449;51.528;5.076;2023-12-20T06:05:30;65.80;;;62.53;;
64157;SDS011;50449;51.528;5.076;2023-12-20T06:07:55;66.50;;;63.30;;
64157;SDS011;50449;51.528;5.076;2023-12-20T06:10:26;63.65;;;60.65;;
64157;SDS011;50449;51.528;5.076;2023-12-20T06:12:51;58.83;;;56.05;;
64157;SDS011;50449;51.528;5.076;2023-12-20T06:15:17;62.25;;;59.38;;
64157;SDS011;50449;51.528;5.076;2023-12-20T06:17:42;58.10;;;55.40;;
64157;SDS011;50449;51.528;5.076;2023-12-20T06:20:08;62.42;;;58.75;;
64157;SDS011;50449;51.528;5.076;2023-12-20T06:22:34;61.17;;;58.15;;
64157;SDS011;50449;51.528;5.076;2023-12-20T06:25:00;68.57;;;63.97;;
64157;SDS011;50449;51.528;5.076;2023-12-20T06:27:25;61.13;;;58.30;;
64157;SDS011;50449;51.528;5.076;2023-12-20T06:29:51;64.50;;;60.60;;
64157;SDS011;50449;51.528;5.076;2023-12-20T06:32:16;65.63;;;62.42;;
64157;SDS011;50449;51.528;5.076;2023-12-20T06:34:41;61.13;;;58.22;;
64157;SDS011;50449;51.528;5.076;2023-12-20T06:37:07;60.20;;;56.25;;
64157;SDS011;50449;51.528;5.076;2023-12-20T06:39:32;60.80;;;57.38;;
64157;SDS011;50449;51.528;5.076;2023-12-20T06:41:59;62.05;;;58.53;;
64157;SDS011;50449;51.528;5.076;2023-12-20T06:44:24;63.47;;;60.03;;
64157;SDS011;50449;51.528;5.076;2023-12-20T06:46:50;63.78;;;60.63;;
64157;SDS011;50449;51.528;5.076;2023-12-20T06:49:15;63.60;;;60.33;;
64157;SDS011;50449;51.528;5.076;2023-12-20T06:51:41;61.30;;;58.20;;
64157;SDS011;50449;51.528;5.076;2023-12-20T06:54:06;61.20;;;57.92;;
64157;SDS011;50449;51.528;5.076;2023-12-20T06:56:32;61.50;;;58.65;;
64157;SDS011;50449;51.528;5.076;2023-12-20T06:58:57;62.15;;;58.67;;
64157;SDS011;50449;51.528;5.076;2023-12-20T07:01:23;62.75;;;59.75;;
64157;SDS011;50449;51.528;5.076;2023-12-20T07:03:48;60.50;;;57.72;;
64157;SDS011;50449;51.528;5.076;2023-12-20T07:06:13;61.20;;;58.20;;
64157;SDS011;50449;51.528;5.076;2023-12-20T07:08:41;59.40;;;56.67;;
64157;SDS011;50449;51.528;5.076;2023-12-20T07:11:07;65.05;;;61.58;;
64157;SDS011;50449;51.528;5.076;2023-12-20T07:13:32;61.85;;;58.65;;
64157;SDS011;50449;51.528;5.076;2023-12-20T07:15:58;64.70;;;61.47;;
64157;SDS011;50449;51.528;5.076;2023-12-20T07:18:23;66.40;;;62.80;;
64157;SDS011;50449;51.528;5.076;2023-12-20T07:20:49;61.88;;;58.95;;
64157;SDS011;50449;51.528;5.076;2023-12-20T07:23:14;59.92;;;57.13;;
64157;SDS011;50449;51.528;5.076;2023-12-20T07:25:39;59.78;;;56.97;;
64157;SDS011;50449;51.528;5.076;2023-12-20T07:28:05;62.63;;;59.13;;
64157;SDS011;50449;51.528;5.076;2023-12-20T07:30:30;59.60;;;56.08;;
64157;SDS011;50449;51.528;5.076;2023-12-20T07:32:56;66.45;;;62.83;;
64157;SDS011;50449;51.528;5.076;2023-12-20T07:35:22;61.38;;;58.58;;
64157;SDS011;50449;51.528;5.076;2023-12-20T07:37:48;63.53;;;60.33;;
64157;SDS011;50449;51.528;5.076;2023-12-20T07:40:14;62.05;;;58.85;;
64157;SDS011;50449;51.528;5.076;2023-12-20T07:42:42;63.13;;;59.80;;
64157;SDS011;50449;51.528;5.076;2023-12-20T07:45:07;64.40;;;61.38;;
64157;SDS011;50449;51.528;5.076;2023-12-20T07:47:34;64.25;;;61.25;;
64157;SDS011;50449;51.528;5.076;2023-12-20T07:49:59;62.03;;;58.67;;
64157;SDS011;50449;51.528;5.076;2023-12-20T07:52:25;60.95;;;58.15;;
64157;SDS011;50449;51.528;5.076;2023-12-20T07:54:51;62.80;;;59.65;;
64157;SDS011;50449;51.528;5.076;2023-12-20T07:57:16;66.45;;;62.72;;
64157;SDS011;50449;51.528;5.076;2023-12-20T07:59:42;60.17;;;57.00;;
64157;SDS011;50449;51.528;5.076;2023-12-20T08:02:09;61.08;;;57.72;;
64157;SDS011;50449;51.528;5.076;2023-12-20T08:04:34;59.85;;;57.05;;
64157;SDS011;50449;51.528;5.076;2023-12-20T08:07:00;63.72;;;60.42;;
64157;SDS011;50449;51.528;5.076;2023-12-20T08:09:25;58.83;;;55.90;;
64157;SDS011;50449;51.528;5.076;2023-12-20T08:11:51;62.22;;;58.45;;
64157;SDS011;50449;51.528;5.076;2023-12-20T08:14:16;63.70;;;60.60;;
64157;SDS011;50449;51.528;5.076;2023-12-20T08:16:41;59.55;;;56.55;;
64157;SDS011;50449;51.528;5.076;2023-12-20T08:19:07;62.13;;;58.60;;
64157;SDS011;50449;51.528;5.076;2023-12-20T08:21:32;63.08;;;59.95;;
64157;SDS011;50449;51.528;5.076;2023-12-20T08:23:58;62.95;;;60.03;;
64157;SDS011;50449;51.528;5.076;2023-12-20T08:26:25;66.40;;;61.45;;
64157;SDS011;50449;51.528;5.076;2023-12-20T08:28:51;61.47;;;57.78;;
64157;SDS011;50449;51.528;5.076;2023-12-20T08:31:17;62.28;;;58.95;;
64157;SDS011;50449;51.528;5.076;2023-12-20T08:33:46;62.45;;;59.30;;
64157;SDS011;50449;51.528;5.076;2023-12-20T08:36:13;65.45;;;61.50;;
64157;SDS011;50449;51.528;5.076;2023-12-20T08:38:38;62.33;;;59.33;;
64157;SDS011;50449;51.528;5.076;2023-12-20T08:41:04;60.30;;;56.70;;
64157;SDS011;50449;51.528;5.076;2023-12-20T08:43:30;62.15;;;59.05;;
64157;SDS011;50449;51.528;5.076;2023-12-20T08:45:56;63.80;;;60.22;;
64157;SDS011;50449;51.528;5.076;2023-12-20T08:48:21;65.40;;;62.20;;
64157;SDS011;50449;51.528;5.076;2023-12-20T08:50:47;62.22;;;59.30;;
64157;SDS011;50449;51.528;5.076;2023-12-20T08:53:14;64.00;;;60.90;;
64157;SDS011;50449;51.528;5.076;2023-12-20T08:55:41;62.03;;;58.65;;
64157;SDS011;50449;51.528;5.076;2023-12-20T08:58:07;59.10;;;55.78;;
64157;SDS011;50449;51.528;5.076;2023-12-20T09:00:33;61.97;;;58.90;;
64157;SDS011;50449;51.528;5.076;2023-12-20T09:02:59;60.28;;;57.53;;
64157;SDS011;50449;51.528;5.076;2023-12-20T09:05:26;59.72;;;56.80;;
64157;SDS011;50449;51.528;5.076;2023-12-20T09:07:51;65.18;;;61.50;;
64157;SDS011;50449;51.528;5.076;2023-12-20T09:10:17;60.00;;;56.55;;
64157;SDS011;50449;51.528;5.076;2023-12-20T09:12:47;64.18;;;61.10;;
64157;SDS011;50449;51.528;5.076;2023-12-20T09:15:25;58.97;;;56.10;;
64157;SDS011;50449;51.528;5.076;2023-12-20T09:17:51;63.38;;;60.28;;
64157;SDS011;50449;51.528;5.076;2023-12-20T09:20:17;63.78;;;59.90;;
64157;SDS011;50449;51.528;5.076;2023-12-20T09:22:43;61.83;;;58.80;;
64157;SDS011;50449;51.528;5.076;2023-12-20T09:25:09;59.20;;;56.15;;
64157;SDS011;50449;51.528;5.076;2023-12-20T09:27:36;60.10;;;57.17;;
64157;SDS011;50449;51.528;5.076;2023-12-20T09:30:01;54.88;;;52.33;;
64157;SDS011;50449;51.528;5.076;2023-12-20T09:32:27;58.95;;;56.03;;
64157;SDS011;50449;51.528;5.076;2023-12-20T09:34:52;61.25;;;58.35;;
64157;SDS011;50449;51.528;5.076;2023-12-20T09:37:18;64.85;;;61.75;;
64157;SDS011;50449;51.528;5.076;2023-12-20T09:39:43;63.08;;;59.85;;
64157;SDS011;50449;51.528;5.076;2023-12-20T09:42:08;66.72;;;63.20;;
64157;SDS011;50449;51.528;5.076;2023-12-20T09:44:37;59.13;;;56.20;;
64157;SDS011;50449;51.528;5.076;2023-12-20T09:49:31;60.60;;;57.28;;
64157;SDS011;50449;51.528;5.076;2023-12-20T09:51:58;62.22;;;58.85;;
64157;SDS011;50449;51.528;5.076;2023-12-20T09:54:25;61.78;;;58.90;;
64157;SDS011;50449;51.528;5.076;2023-12-20T09:56:53;61.55;;;58.25;;
64157;SDS011;50449;51.528;5.076;2023-12-20T09:59:19;60.60;;;57.65;;
64157;SDS011;50449;51.528;5.076;2023-12-20T10:01:44;63.22;;;60.03;;
64157;SDS011;50449;51.528;5.076;2023-12-20T10:04:10;60.50;;;57.05;;
64157;SDS011;50449;51.528;5.076;2023-12-20T10:06:40;63.35;;;59.85;;
64157;SDS011;50449;51.528;5.076;2023-12-20T10:11:35;55.70;;;52.90;;
64157;SDS011;50449;51.528;5.076;2023-12-20T10:14:02;56.83;;;54.13;;
64157;SDS011;50449;51.528;5.076;2023-12-20T10:16:28;62.65;;;59.58;;
64157;SDS011;50449;51.528;5.076;2023-12-20T10:18:54;59.40;;;55.85;;
64157;SDS011;50449;51.528;5.076;2023-12-20T10:21:21;63.58;;;60.47;;
64157;SDS011;50449;51.528;5.076;2023-12-20T10:23:51;59.08;;;55.92;;
64157;SDS011;50449;51.528;5.076;2023-12-20T10:26:20;65.03;;;60.92;;
64157;SDS011;50449;51.528;5.076;2023-12-20T10:28:46;62.00;;;58.78;;
64157;SDS011;50449;51.528;5.076;2023-12-20T10:31:36;65.28;;;61.80;;
64157;SDS011;50449;51.528;5.076;2023-12-20T10:34:01;62.20;;;58.90;;
64157;SDS011;50449;51.528;5.076;2023-12-20T10:36:31;59.70;;;56.40;;
64157;SDS011;50449;51.528;5.076;2023-12-20T10:38:58;62.50;;;59.42;;
64157;SDS011;50449;51.528;5.076;2023-12-20T10:41:26;64.25;;;60.97;;
64157;SDS011;50449;51.528;5.076;2023-12-20T10:43:59;63.60;;;60.20;;
64157;SDS011;50449;51.528;5.076;2023-12-20T10:46:30;64.90;;;61.50;;
64157;SDS011;50449;51.528;5.076;2023-12-20T10:48:57;63.42;;;60.00;;
64157;SDS011;50449;51.528;5.076;2023-12-20T10:51:23;67.53;;;63.47;;
64157;SDS011;50449;51.528;5.076;2023-12-20T10:53:51;61.20;;;58.40;;
64157;SDS011;50449;51.528;5.076;2023-12-20T10:56:18;65.18;;;61.85;;
64157;SDS011;50449;51.528;5.076;2023-12-20T10:58:45;61.75;;;57.42;;
64157;SDS011;50449;51.528;5.076;2023-12-20T11:01:14;64.88;;;61.60;;
64157;SDS011;50449;51.528;5.076;2023-12-20T11:03:51;61.80;;;58.60;;
64157;SDS011;50449;51.528;5.076;2023-12-20T11:08:52;65.80;;;62.42;;
64157;SDS011;50449;51.528;5.076;2023-12-20T11:12:02;60.60;;;57.50;;
64157;SDS011;50449;51.528;5.076;2023-12-20T11:14:47;62.13;;;59.05;;
64157;SDS011;50449;51.528;5.076;2023-12-20T11:17:15;62.92;;;59.25;;
64157;SDS011;50449;51.528;5.076;2023-12-20T11:22:21;66.00;;;62.50;;
64157;SDS011;50449;51.528;5.076;2023-12-20T11:24:47;63.00;;;59.92;;
64157;SDS011;50449;51.528;5.076;2023-12-20T11:27:13;62.95;;;59.88;;
64157;SDS011;50449;51.528;5.076;2023-12-20T11:29:39;64.57;;;61.47;;
64157;SDS011;50449;51.528;5.076;2023-12-20T11:37:28;64.72;;;61.22;;
64157;SDS011;50449;51.528;5.076;2023-12-20T11:40:00;66.90;;;63.70;;
64157;SDS011;50449;51.528;5.076;2023-12-20T11:42:27;71.00;;;67.35;;
64157;SDS011;50449;51.528;5.076;2023-12-20T11:44:53;61.63;;;58.42;;
64157;SDS011;50449;51.528;5.076;2023-12-20T11:47:18;70.18;;;66.63;;
64157;SDS011;50449;51.528;5.076;2023-12-20T11:49:46;62.63;;;59.45;;
64157;SDS011;50449;51.528;5.076;2023-12-20T11:52:13;63.22;;;60.13;;
64157;SDS011;50449;51.528;5.076;2023-12-20T11:54:39;67.13;;;63.83;;
64157;SDS011;50449;51.528;5.076;2023-12-20T11:57:04;68.55;;;64.10;;
64157;SDS011;50449;51.528;5.076;2023-12-20T11:59:30;66.60;;;63.20;;
64157;SDS011;50449;51.528;5.076;2023-12-20T12:01:56;68.57;;;65.03;;
64157;SDS011;50449;51.528;5.076;2023-12-20T12:04:25;66.65;;;63.25;;
64157;SDS011;50449;51.528;5.076;2023-12-20T12:06:51;64.22;;;60.47;;
64157;SDS011;50449;51.528;5.076;2023-12-20T12:09:16;66.43;;;63.22;;
64157;SDS011;50449;51.528;5.076;2023-12-20T12:11:42;64.65;;;61.45;;
64157;SDS011;50449;51.528;5.076;2023-12-20T12:14:08;67.57;;;64.28;;
64157;SDS011;50449;51.528;5.076;2023-12-20T12:16:33;69.13;;;64.40;;
64157;SDS011;50449;51.528;5.076;2023-12-20T12:18:59;67.78;;;64.28;;
64157;SDS011;50449;51.528;5.076;2023-12-20T12:21:25;61.28;;;58.33;;
64157;SDS011;50449;51.528;5.076;2023-12-20T12:23:51;60.78;;;57.80;;
64157;SDS011;50449;51.528;5.076;2023-12-20T12:26:16;66.93;;;63.72;;
64157;SDS011;50449;51.528;5.076;2023-12-20T12:28:42;65.55;;;62.30;;
64157;SDS011;50449;51.528;5.076;2023-12-20T12:31:08;67.35;;;63.95;;
64157;SDS011;50449;51.528;5.076;2023-12-20T12:33:37;65.43;;;61.83;;
64157;SDS011;50449;51.528;5.076;2023-12-20T12:36:03;65.35;;;62.03;;
64157;SDS011;50449;51.528;5.076;2023-12-20T12:38:32;68.50;;;65.20;;
64157;SDS011;50449;51.528;5.076;2023-12-20T12:40:57;65.93;;;62.88;;
64157;SDS011;50449;51.528;5.076;2023-12-20T12:43:23;67.95;;;63.63;;
64157;SDS011;50449;51.528;5.076;2023-12-20T12:45:49;66.18;;;62.33;;
64157;SDS011;50449;51.528;5.076;2023-12-20T12:48:14;62.17;;;59.28;;
64157;SDS011;50449;51.528;5.076;2023-12-20T12:50:40;65.47;;;62.53;;
64157;SDS011;50449;51.528;5.076;2023-12-20T12:53:05;67.53;;;64.38;;
64157;SDS011;50449;51.528;5.076;2023-12-20T12:55:31;70.85;;;67.07;;
64157;SDS011;50449;51.528;5.076;2023-12-20T12:57:56;68.00;;;64.85;;
64157;SDS011;50449;51.528;5.076;2023-12-20T13:00:22;66.25;;;63.13;;
64157;SDS011;50449;51.528;5.076;2023-12-20T13:02:47;71.57;;;67.57;;
64157;SDS011;50449;51.528;5.076;2023-12-20T13:05:13;70.63;;;67.20;;
64157;SDS011;50449;51.528;5.076;2023-12-20T13:07:38;67.47;;;64.13;;
64157;SDS011;50449;51.528;5.076;2023-12-20T13:10:04;73.07;;;69.10;;
64157;SDS011;50449;51.528;5.076;2023-12-20T13:12:31;71.93;;;68.20;;
64157;SDS011;50449;51.528;5.076;2023-12-20T13:14:57;66.65;;;62.38;;
64157;SDS011;50449;51.528;5.076;2023-12-20T13:17:22;70.88;;;66.82;;
64157;SDS011;50449;51.528;5.076;2023-12-20T13:19:48;65.95;;;62.45;;
64157;SDS011;50449;51.528;5.076;2023-12-20T13:22:14;68.30;;;64.95;;
64157;SDS011;50449;51.528;5.076;2023-12-20T13:24:40;66.57;;;63.38;;
64157;SDS011;50449;51.528;5.076;2023-12-20T13:27:05;71.18;;;67.68;;
64157;SDS011;50449;51.528;5.076;2023-12-20T13:29:31;69.05;;;65.63;;
64157;SDS011;50449;51.528;5.076;2023-12-20T13:31:56;65.53;;;62.50;;
64157;SDS011;50449;51.528;5.076;2023-12-20T13:34:22;70.20;;;66.75;;
64157;SDS011;50449;51.528;5.076;2023-12-20T13:36:48;68.50;;;64.57;;
64157;SDS011;50449;51.528;5.076;2023-12-20T13:39:15;66.50;;;63.20;;
64157;SDS011;50449;51.528;5.076;2023-12-20T13:41:41;69.13;;;65.45;;
64157;SDS011;50449;51.528;5.076;2023-12-20T13:44:07;64.93;;;61.22;;
64157;SDS011;50449;51.528;5.076;2023-12-20T13:46:33;69.28;;;65.85;;
64157;SDS011;50449;51.528;5.076;2023-12-20T13:48:58;70.53;;;66.53;;
64157;SDS011;50449;51.528;5.076;2023-12-20T13:51:24;64.18;;;61.25;;
64157;SDS011;50449;51.528;5.076;2023-12-20T13:53:50;69.95;;;66.43;;
64157;SDS011;50449;51.528;5.076;2023-12-20T13:56:15;68.22;;;64.93;;
64157;SDS011;50449;51.528;5.076;2023-12-20T13:58:41;67.18;;;63.67;;
64157;SDS011;50449;51.528;5.076;2023-12-20T14:01:07;64.60;;;61.63;;
64157;SDS011;50449;51.528;5.076;2023-12-20T14:03:33;69.30;;;65.03;;
64157;SDS011;50449;51.528;5.076;2023-12-20T14:05:59;68.90;;;65.65;;
64157;SDS011;50449;51.528;5.076;2023-12-20T14:08:26;66.43;;;63.35;;
64157;SDS011;50449;51.528;5.076;2023-12-20T14:10:52;72.32;;;67.85;;
64157;SDS011;50449;51.528;5.076;2023-12-20T14:13:18;69.13;;;65.63;;
64157;SDS011;50449;51.528;5.076;2023-12-20T14:15:43;68.85;;;64.95;;
64157;SDS011;50449;51.528;5.076;2023-12-20T14:18:09;70.43;;;66.63;;
64157;SDS011;50449;51.528;5.076;2023-12-20T14:20:35;72.25;;;68.85;;
64157;SDS011;50449;51.528;5.076;2023-12-20T14:23:04;72.68;;;68.00;;
64157;SDS011;50449;51.528;5.076;2023-12-20T14:25:29;71.75;;;68.38;;
64157;SDS011;50449;51.528;5.076;2023-12-20T14:27:55;74.85;;;71.15;;
64157;SDS011;50449;51.528;5.076;2023-12-20T14:30:21;74.13;;;70.05;;
64157;SDS011;50449;51.528;5.076;2023-12-20T14:32:46;69.50;;;65.75;;